sensor_id;sensor_type;location;lat;lon;timestamp;P1;durP1;ratioP1;P2;durP2;ratioP2
60352;SDS011;46196;52.970;6.954;2023-02-15T00:01:47;23.20;;;15.52;;
60352;SDS011;46196;52.970;6.954;2023-02-15T00:04:14;22.95;;;16.25;;
60352;SDS011;46196;52.970;6.954;2023-02-15T00:06:42;23.63;;;16.10;;
60352;SDS011;46196;52.970;6.954;2023-02-15T00:09:08;22.48;;;15.85;;
60352;SDS011;46196;52.970;6.954;2023-02-15T00:11:35;22.40;;;14.75;;
60352;SDS011;46196;52.970;6.954;2023-02-15T00:16:47;21.90;;;15.82;;
60352;SDS011;46196;52.970;6.954;2023-02-15T00:19:16;27.52;;;14.93;;
60352;SDS011;46196;52.970;6.954;2023-02-15T00:21:42;27.70;;;15.90;;
60352;SDS011;46196;52.970;6.954;2023-02-15T00:24:09;24.98;;;15.30;;
60352;SDS011;46196;52.970;6.954;2023-02-15T00:26:40;22.00;;;16.17;;
60352;SDS011;46196;52.970;6.954;2023-02-15T00:29:07;23.77;;;15.23;;
60352;SDS011;46196;52.970;6.954;2023-02-15T00:31:34;20.40;;;14.40;;
60352;SDS011;46196;52.970;6.954;2023-02-15T00:34:19;27.10;;;16.15;;
60352;SDS011;46196;52.970;6.954;2023-02-15T00:36:49;40.92;;;13.88;;
60352;SDS011;46196;52.970;6.954;2023-02-15T00:39:15;28.85;;;14.38;;
60352;SDS011;46196;52.970;6.954;2023-02-15T00:41:42;25.08;;;13.98;;
60352;SDS011;46196;52.970;6.954;2023-02-15T00:44:08;22.48;;;15.10;;
60352;SDS011;46196;52.970;6.954;2023-02-15T00:46:34;18.58;;;14.15;;
60352;SDS011;46196;52.970;6.954;2023-02-15T00:49:00;24.98;;;14.98;;
60352;SDS011;46196;52.970;6.954;2023-02-15T00:51:26;32.65;;;16.10;;
60352;SDS011;46196;52.970;6.954;2023-02-15T00:53:52;53.85;;;16.00;;
60352;SDS011;46196;52.970;6.954;2023-02-15T00:56:18;34.72;;;16.05;;
60352;SDS011;46196;52.970;6.954;2023-02-15T00:58:44;52.25;;;19.27;;
60352;SDS011;46196;52.970;6.954;2023-02-15T01:01:11;28.25;;;16.30;;
60352;SDS011;46196;52.970;6.954;2023-02-15T01:03:39;29.00;;;15.90;;
60352;SDS011;46196;52.970;6.954;2023-02-15T01:06:06;31.75;;;16.13;;
60352;SDS011;46196;52.970;6.954;2023-02-15T01:08:33;26.08;;;14.75;;
60352;SDS011;46196;52.970;6.954;2023-02-15T01:11:03;26.77;;;15.32;;
60352;SDS011;46196;52.970;6.954;2023-02-15T01:13:30;34.92;;;14.50;;
60352;SDS011;46196;52.970;6.954;2023-02-15T01:15:56;24.80;;;14.75;;
60352;SDS011;46196;52.970;6.954;2023-02-15T01:18:22;21.30;;;15.50;;
60352;SDS011;46196;52.970;6.954;2023-02-15T01:20:48;42.35;;;16.85;;
60352;SDS011;46196;52.970;6.954;2023-02-15T01:23:14;49.53;;;17.08;;
60352;SDS011;46196;52.970;6.954;2023-02-15T01:25:40;56.60;;;16.90;;
60352;SDS011;46196;52.970;6.954;2023-02-15T01:28:06;31.73;;;14.13;;
60352;SDS011;46196;52.970;6.954;2023-02-15T01:30:32;22.25;;;14.52;;
60352;SDS011;46196;52.970;6.954;2023-02-15T01:32:58;31.50;;;16.65;;
60352;SDS011;46196;52.970;6.954;2023-02-15T01:35:26;18.08;;;13.55;;
60352;SDS011;46196;52.970;6.954;2023-02-15T01:37:52;20.13;;;14.52;;
60352;SDS011;46196;52.970;6.954;2023-02-15T01:40:18;18.08;;;14.10;;
60352;SDS011;46196;52.970;6.954;2023-02-15T01:42:44;20.50;;;15.13;;
60352;SDS011;46196;52.970;6.954;2023-02-15T01:47:54;21.20;;;13.85;;
60352;SDS011;46196;52.970;6.954;2023-02-15T01:55:41;18.13;;;13.27;;
60352;SDS011;46196;52.970;6.954;2023-02-15T01:58:17;17.83;;;13.63;;
60352;SDS011;46196;52.970;6.954;2023-02-15T02:00:44;17.67;;;13.80;;
60352;SDS011;46196;52.970;6.954;2023-02-15T02:03:10;21.55;;;14.27;;
60352;SDS011;46196;52.970;6.954;2023-02-15T02:05:36;20.52;;;15.40;;
60352;SDS011;46196;52.970;6.954;2023-02-15T02:08:04;20.15;;;14.32;;
60352;SDS011;46196;52.970;6.954;2023-02-15T02:10:30;20.10;;;14.73;;
60352;SDS011;46196;52.970;6.954;2023-02-15T02:12:57;20.48;;;14.23;;
60352;SDS011;46196;52.970;6.954;2023-02-15T02:15:47;22.02;;;14.63;;
60352;SDS011;46196;52.970;6.954;2023-02-15T02:18:33;21.00;;;14.98;;
60352;SDS011;46196;52.970;6.954;2023-02-15T02:24:36;19.45;;;15.25;;
60352;SDS011;46196;52.970;6.954;2023-02-15T02:43:28;60.72;;;18.13;;
60352;SDS011;46196;52.970;6.954;2023-02-15T02:46:21;54.70;;;16.90;;
60352;SDS011;46196;52.970;6.954;2023-02-15T02:48:56;54.97;;;17.58;;
60352;SDS011;46196;52.970;6.954;2023-02-15T02:51:22;28.92;;;16.60;;
60352;SDS011;46196;52.970;6.954;2023-02-15T02:53:53;27.40;;;16.52;;
60352;SDS011;46196;52.970;6.954;2023-02-15T03:01:48;79.72;;;18.48;;
60352;SDS011;46196;52.970;6.954;2023-02-15T03:04:21;115.47;;;19.50;;
60352;SDS011;46196;52.970;6.954;2023-02-15T03:06:54;52.47;;;16.95;;
60352;SDS011;46196;52.970;6.954;2023-02-15T03:09:31;34.75;;;15.20;;
60352;SDS011;46196;52.970;6.954;2023-02-15T03:12:07;93.63;;;18.75;;
60352;SDS011;46196;52.970;6.954;2023-02-15T03:14:35;66.43;;;17.17;;
60352;SDS011;46196;52.970;6.954;2023-02-15T03:17:03;95.93;;;19.30;;
60352;SDS011;46196;52.970;6.954;2023-02-15T03:19:31;52.78;;;16.73;;
60352;SDS011;46196;52.970;6.954;2023-02-15T03:22:00;71.82;;;18.08;;
60352;SDS011;46196;52.970;6.954;2023-02-15T03:27:24;27.30;;;15.20;;
60352;SDS011;46196;52.970;6.954;2023-02-15T03:29:55;58.35;;;16.25;;
60352;SDS011;46196;52.970;6.954;2023-02-15T03:32:25;31.13;;;14.93;;
60352;SDS011;46196;52.970;6.954;2023-02-15T03:34:54;26.13;;;15.20;;
60352;SDS011;46196;52.970;6.954;2023-02-15T03:37:26;21.83;;;14.90;;
60352;SDS011;46196;52.970;6.954;2023-02-15T03:42:58;43.30;;;15.10;;
60352;SDS011;46196;52.970;6.954;2023-02-15T03:45:30;63.03;;;16.83;;
60352;SDS011;46196;52.970;6.954;2023-02-15T03:47:58;43.35;;;16.80;;
60352;SDS011;46196;52.970;6.954;2023-02-15T03:50:32;44.28;;;15.82;;
60352;SDS011;46196;52.970;6.954;2023-02-15T03:53:20;45.65;;;17.02;;
60352;SDS011;46196;52.970;6.954;2023-02-15T03:55:53;36.05;;;15.77;;
60352;SDS011;46196;52.970;6.954;2023-02-15T03:58:19;41.83;;;16.52;;
60352;SDS011;46196;52.970;6.954;2023-02-15T04:01:05;70.43;;;18.30;;
60352;SDS011;46196;52.970;6.954;2023-02-15T04:04:05;34.60;;;15.45;;
60352;SDS011;46196;52.970;6.954;2023-02-15T04:06:37;33.88;;;15.52;;
60352;SDS011;46196;52.970;6.954;2023-02-15T04:09:03;55.03;;;17.02;;
60352;SDS011;46196;52.970;6.954;2023-02-15T04:11:47;87.03;;;18.58;;
60352;SDS011;46196;52.970;6.954;2023-02-15T04:14:13;71.13;;;18.08;;
60352;SDS011;46196;52.970;6.954;2023-02-15T04:16:57;82.55;;;17.50;;
60352;SDS011;46196;52.970;6.954;2023-02-15T04:19:23;48.00;;;16.98;;
60352;SDS011;46196;52.970;6.954;2023-02-15T04:22:07;29.17;;;15.80;;
60352;SDS011;46196;52.970;6.954;2023-02-15T04:24:51;42.47;;;17.77;;
60352;SDS011;46196;52.970;6.954;2023-02-15T04:27:39;61.08;;;17.50;;
60352;SDS011;46196;52.970;6.954;2023-02-15T04:30:24;53.65;;;17.75;;
60352;SDS011;46196;52.970;6.954;2023-02-15T04:32:50;61.70;;;18.40;;
60352;SDS011;46196;52.970;6.954;2023-02-15T04:35:17;72.07;;;19.10;;
60352;SDS011;46196;52.970;6.954;2023-02-15T04:37:43;54.88;;;18.45;;
60352;SDS011;46196;52.970;6.954;2023-02-15T04:40:10;58.75;;;18.58;;
60352;SDS011;46196;52.970;6.954;2023-02-15T04:42:38;43.78;;;17.80;;
60352;SDS011;46196;52.970;6.954;2023-02-15T04:45:04;71.43;;;20.50;;
60352;SDS011;46196;52.970;6.954;2023-02-15T04:47:30;42.10;;;18.20;;
60352;SDS011;46196;52.970;6.954;2023-02-15T04:49:56;43.95;;;17.55;;
60352;SDS011;46196;52.970;6.954;2023-02-15T04:52:22;28.92;;;16.92;;
60352;SDS011;46196;52.970;6.954;2023-02-15T04:54:48;56.38;;;20.48;;
60352;SDS011;46196;52.970;6.954;2023-02-15T04:57:13;44.13;;;21.65;;
60352;SDS011;46196;52.970;6.954;2023-02-15T04:59:39;33.30;;;19.83;;
60352;SDS011;46196;52.970;6.954;2023-02-15T05:02:05;50.35;;;24.02;;
60352;SDS011;46196;52.970;6.954;2023-02-15T05:04:31;31.63;;;19.80;;
60352;SDS011;46196;52.970;6.954;2023-02-15T05:06:56;32.45;;;18.88;;
60352;SDS011;46196;52.970;6.954;2023-02-15T05:09:22;32.88;;;20.60;;
60352;SDS011;46196;52.970;6.954;2023-02-15T05:11:48;26.38;;;18.05;;
60352;SDS011;46196;52.970;6.954;2023-02-15T05:14:14;32.42;;;19.20;;
60352;SDS011;46196;52.970;6.954;2023-02-15T05:16:39;29.98;;;19.38;;
60352;SDS011;46196;52.970;6.954;2023-02-15T05:19:05;37.20;;;20.50;;
60352;SDS011;46196;52.970;6.954;2023-02-15T05:21:31;32.95;;;19.83;;
60352;SDS011;46196;52.970;6.954;2023-02-15T05:23:57;31.92;;;19.63;;
60352;SDS011;46196;52.970;6.954;2023-02-15T05:26:23;30.38;;;18.70;;
60352;SDS011;46196;52.970;6.954;2023-02-15T05:29:08;30.17;;;18.88;;
60352;SDS011;46196;52.970;6.954;2023-02-15T05:31:35;27.85;;;17.80;;
60352;SDS011;46196;52.970;6.954;2023-02-15T05:34:01;31.75;;;19.23;;
60352;SDS011;46196;52.970;6.954;2023-02-15T05:36:27;30.55;;;19.60;;
60352;SDS011;46196;52.970;6.954;2023-02-15T05:38:53;35.40;;;19.02;;
60352;SDS011;46196;52.970;6.954;2023-02-15T05:41:20;35.83;;;20.83;;
60352;SDS011;46196;52.970;6.954;2023-02-15T05:43:45;29.02;;;19.30;;
60352;SDS011;46196;52.970;6.954;2023-02-15T05:46:11;31.55;;;18.88;;
60352;SDS011;46196;52.970;6.954;2023-02-15T05:48:37;34.15;;;19.83;;
60352;SDS011;46196;52.970;6.954;2023-02-15T05:51:05;28.15;;;18.85;;
60352;SDS011;46196;52.970;6.954;2023-02-15T05:53:44;32.40;;;18.88;;
60352;SDS011;46196;52.970;6.954;2023-02-15T05:56:10;33.13;;;19.95;;
60352;SDS011;46196;52.970;6.954;2023-02-15T05:58:37;34.03;;;19.60;;
60352;SDS011;46196;52.970;6.954;2023-02-15T06:01:22;38.22;;;21.25;;
60352;SDS011;46196;52.970;6.954;2023-02-15T06:03:48;35.40;;;21.20;;
60352;SDS011;46196;52.970;6.954;2023-02-15T06:06:14;33.08;;;20.77;;
60352;SDS011;46196;52.970;6.954;2023-02-15T06:08:40;35.22;;;20.45;;
60352;SDS011;46196;52.970;6.954;2023-02-15T06:11:06;34.17;;;19.15;;
60352;SDS011;46196;52.970;6.954;2023-02-15T06:13:32;34.58;;;21.13;;
60352;SDS011;46196;52.970;6.954;2023-02-15T06:15:59;36.90;;;20.98;;
60352;SDS011;46196;52.970;6.954;2023-02-15T06:18:25;34.25;;;21.23;;
60352;SDS011;46196;52.970;6.954;2023-02-15T06:20:50;36.28;;;20.60;;
60352;SDS011;46196;52.970;6.954;2023-02-15T06:23:16;36.05;;;21.30;;
60352;SDS011;46196;52.970;6.954;2023-02-15T06:25:44;35.58;;;21.33;;
60352;SDS011;46196;52.970;6.954;2023-02-15T06:28:11;36.63;;;20.33;;
60352;SDS011;46196;52.970;6.954;2023-02-15T06:30:37;37.08;;;20.80;;
60352;SDS011;46196;52.970;6.954;2023-02-15T06:33:02;30.65;;;20.33;;
60352;SDS011;46196;52.970;6.954;2023-02-15T06:35:28;32.75;;;21.40;;
60352;SDS011;46196;52.970;6.954;2023-02-15T06:37:54;32.60;;;20.08;;
60352;SDS011;46196;52.970;6.954;2023-02-15T06:40:20;31.52;;;19.55;;
60352;SDS011;46196;52.970;6.954;2023-02-15T06:42:46;37.88;;;21.73;;
60352;SDS011;46196;52.970;6.954;2023-02-15T06:45:12;36.63;;;21.52;;
60352;SDS011;46196;52.970;6.954;2023-02-15T06:47:38;32.47;;;19.73;;
60352;SDS011;46196;52.970;6.954;2023-02-15T06:50:05;40.90;;;24.60;;
60352;SDS011;46196;52.970;6.954;2023-02-15T06:52:32;40.13;;;24.63;;
60352;SDS011;46196;52.970;6.954;2023-02-15T06:54:58;40.22;;;23.10;;
60352;SDS011;46196;52.970;6.954;2023-02-15T06:57:23;35.33;;;21.15;;
60352;SDS011;46196;52.970;6.954;2023-02-15T06:59:49;33.13;;;20.75;;
60352;SDS011;46196;52.970;6.954;2023-02-15T07:02:15;44.60;;;24.25;;
60352;SDS011;46196;52.970;6.954;2023-02-15T07:04:41;36.30;;;21.83;;
60352;SDS011;46196;52.970;6.954;2023-02-15T07:07:10;38.83;;;23.17;;
60352;SDS011;46196;52.970;6.954;2023-02-15T07:09:36;49.05;;;25.83;;
60352;SDS011;46196;52.970;6.954;2023-02-15T07:12:03;35.90;;;21.33;;
60352;SDS011;46196;52.970;6.954;2023-02-15T07:14:47;35.83;;;21.30;;
60352;SDS011;46196;52.970;6.954;2023-02-15T07:17:13;41.05;;;23.40;;
60352;SDS011;46196;52.970;6.954;2023-02-15T07:19:39;39.97;;;23.02;;
60352;SDS011;46196;52.970;6.954;2023-02-15T07:22:05;37.17;;;22.48;;
60352;SDS011;46196;52.970;6.954;2023-02-15T07:24:31;42.67;;;24.05;;
60352;SDS011;46196;52.970;6.954;2023-02-15T07:26:57;41.28;;;23.13;;
60352;SDS011;46196;52.970;6.954;2023-02-15T07:29:22;38.15;;;22.55;;
60352;SDS011;46196;52.970;6.954;2023-02-15T07:31:48;40.95;;;22.23;;
60352;SDS011;46196;52.970;6.954;2023-02-15T07:34:14;37.65;;;21.92;;
60352;SDS011;46196;52.970;6.954;2023-02-15T07:36:41;38.47;;;22.15;;
60352;SDS011;46196;52.970;6.954;2023-02-15T07:39:09;37.53;;;22.92;;
60352;SDS011;46196;52.970;6.954;2023-02-15T07:41:35;41.58;;;22.77;;
60352;SDS011;46196;52.970;6.954;2023-02-15T07:44:00;40.20;;;24.05;;
60352;SDS011;46196;52.970;6.954;2023-02-15T07:46:26;43.75;;;24.40;;
60352;SDS011;46196;52.970;6.954;2023-02-15T07:48:52;45.20;;;24.15;;
60352;SDS011;46196;52.970;6.954;2023-02-15T07:51:18;46.88;;;24.23;;
60352;SDS011;46196;52.970;6.954;2023-02-15T07:53:44;46.80;;;24.90;;
60352;SDS011;46196;52.970;6.954;2023-02-15T07:56:11;46.03;;;24.25;;
60352;SDS011;46196;52.970;6.954;2023-02-15T07:58:40;42.67;;;24.13;;
60352;SDS011;46196;52.970;6.954;2023-02-15T08:01:22;41.90;;;22.70;;
60352;SDS011;46196;52.970;6.954;2023-02-15T08:03:50;45.85;;;24.20;;
60352;SDS011;46196;52.970;6.954;2023-02-15T08:06:16;47.50;;;24.48;;
60352;SDS011;46196;52.970;6.954;2023-02-15T08:08:42;45.67;;;24.88;;
60352;SDS011;46196;52.970;6.954;2023-02-15T08:13:54;39.90;;;23.65;;
60352;SDS011;46196;52.970;6.954;2023-02-15T08:19:09;46.90;;;24.40;;
60352;SDS011;46196;52.970;6.954;2023-02-15T08:21:39;46.97;;;26.77;;
60352;SDS011;46196;52.970;6.954;2023-02-15T08:24:07;48.33;;;25.27;;
60352;SDS011;46196;52.970;6.954;2023-02-15T08:26:34;48.42;;;25.77;;
60352;SDS011;46196;52.970;6.954;2023-02-15T08:29:00;50.30;;;24.92;;
60352;SDS011;46196;52.970;6.954;2023-02-15T08:31:27;49.88;;;26.85;;
60352;SDS011;46196;52.970;6.954;2023-02-15T08:33:54;48.13;;;25.90;;
60352;SDS011;46196;52.970;6.954;2023-02-15T08:36:22;43.03;;;25.30;;
60352;SDS011;46196;52.970;6.954;2023-02-15T08:38:49;41.58;;;25.88;;
60352;SDS011;46196;52.970;6.954;2023-02-15T08:41:19;42.50;;;24.20;;
60352;SDS011;46196;52.970;6.954;2023-02-15T08:43:52;40.42;;;23.95;;
60352;SDS011;46196;52.970;6.954;2023-02-15T08:46:19;40.03;;;22.60;;
60352;SDS011;46196;52.970;6.954;2023-02-15T08:48:46;38.08;;;23.33;;
60352;SDS011;46196;52.970;6.954;2023-02-15T08:51:16;34.92;;;23.10;;
60352;SDS011;46196;52.970;6.954;2023-02-15T08:53:48;39.15;;;21.58;;
60352;SDS011;46196;52.970;6.954;2023-02-15T08:56:15;35.60;;;22.15;;
60352;SDS011;46196;52.970;6.954;2023-02-15T08:58:42;37.55;;;21.42;;
60352;SDS011;46196;52.970;6.954;2023-02-15T09:01:15;43.95;;;22.05;;
60352;SDS011;46196;52.970;6.954;2023-02-15T09:03:46;43.22;;;23.60;;
60352;SDS011;46196;52.970;6.954;2023-02-15T09:06:14;36.70;;;22.10;;
60352;SDS011;46196;52.970;6.954;2023-02-15T09:08:41;38.33;;;22.05;;
60352;SDS011;46196;52.970;6.954;2023-02-15T09:11:17;37.10;;;22.27;;
60352;SDS011;46196;52.970;6.954;2023-02-15T09:13:53;37.50;;;22.33;;
60352;SDS011;46196;52.970;6.954;2023-02-15T09:16:27;37.90;;;22.38;;
60352;SDS011;46196;52.970;6.954;2023-02-15T09:18:54;34.10;;;20.52;;
60352;SDS011;46196;52.970;6.954;2023-02-15T09:21:22;35.95;;;21.90;;
60352;SDS011;46196;52.970;6.954;2023-02-15T09:23:50;37.28;;;22.80;;
60352;SDS011;46196;52.970;6.954;2023-02-15T09:26:18;39.97;;;22.23;;
60352;SDS011;46196;52.970;6.954;2023-02-15T09:28:45;39.75;;;23.63;;
60352;SDS011;46196;52.970;6.954;2023-02-15T09:31:14;38.25;;;23.08;;
60352;SDS011;46196;52.970;6.954;2023-02-15T09:33:45;40.45;;;24.38;;
60352;SDS011;46196;52.970;6.954;2023-02-15T09:38:41;43.97;;;23.17;;
60352;SDS011;46196;52.970;6.954;2023-02-15T09:52:05;47.60;;;23.75;;
60352;SDS011;46196;52.970;6.954;2023-02-15T09:54:40;43.63;;;24.02;;
60352;SDS011;46196;52.970;6.954;2023-02-15T10:12:12;42.40;;;23.65;;
60352;SDS011;46196;52.970;6.954;2023-02-15T10:25:47;49.67;;;26.08;;
60352;SDS011;46196;52.970;6.954;2023-02-15T10:28:26;47.55;;;25.73;;
60352;SDS011;46196;52.970;6.954;2023-02-15T10:31:07;43.47;;;21.40;;
60352;SDS011;46196;52.970;6.954;2023-02-15T10:33:42;64.93;;;26.67;;
60352;SDS011;46196;52.970;6.954;2023-02-15T10:39:41;52.35;;;28.70;;
60352;SDS011;46196;52.970;6.954;2023-02-15T11:06:20;53.47;;;27.05;;
60352;SDS011;46196;52.970;6.954;2023-02-15T11:08:55;51.22;;;26.85;;
60352;SDS011;46196;52.970;6.954;2023-02-15T11:11:30;45.35;;;26.25;;
60352;SDS011;46196;52.970;6.954;2023-02-15T11:14:25;50.97;;;27.00;;
60352;SDS011;46196;52.970;6.954;2023-02-15T11:16:57;47.47;;;27.52;;
60352;SDS011;46196;52.970;6.954;2023-02-15T11:19:34;47.65;;;27.63;;
60352;SDS011;46196;52.970;6.954;2023-02-15T11:22:03;51.35;;;27.75;;
60352;SDS011;46196;52.970;6.954;2023-02-15T11:24:31;54.90;;;27.25;;
60352;SDS011;46196;52.970;6.954;2023-02-15T11:27:03;47.03;;;25.67;;
60352;SDS011;46196;52.970;6.954;2023-02-15T11:32:14;46.53;;;25.70;;
60352;SDS011;46196;52.970;6.954;2023-02-15T11:34:56;47.42;;;25.80;;
60352;SDS011;46196;52.970;6.954;2023-02-15T11:37:28;51.70;;;26.98;;
60352;SDS011;46196;52.970;6.954;2023-02-15T11:39:59;53.58;;;28.15;;
60352;SDS011;46196;52.970;6.954;2023-02-15T11:42:26;49.90;;;28.02;;
60352;SDS011;46196;52.970;6.954;2023-02-15T11:47:26;51.47;;;27.52;;
60352;SDS011;46196;52.970;6.954;2023-02-15T11:49:52;50.33;;;26.73;;
60352;SDS011;46196;52.970;6.954;2023-02-15T11:52:18;55.17;;;28.15;;
60352;SDS011;46196;52.970;6.954;2023-02-15T11:54:45;50.80;;;27.00;;
60352;SDS011;46196;52.970;6.954;2023-02-15T12:06:13;57.63;;;28.85;;
60352;SDS011;46196;52.970;6.954;2023-02-15T12:11:37;52.80;;;26.77;;
60352;SDS011;46196;52.970;6.954;2023-02-15T12:14:11;50.33;;;25.75;;
60352;SDS011;46196;52.970;6.954;2023-02-15T12:22:21;53.97;;;27.65;;
60352;SDS011;46196;52.970;6.954;2023-02-15T12:24:51;50.92;;;24.98;;
60352;SDS011;46196;52.970;6.954;2023-02-15T12:27:24;53.92;;;26.83;;
60352;SDS011;46196;52.970;6.954;2023-02-15T12:29:59;56.60;;;27.40;;
60352;SDS011;46196;52.970;6.954;2023-02-15T12:32:51;51.75;;;27.15;;
60352;SDS011;46196;52.970;6.954;2023-02-15T12:35:29;54.42;;;27.75;;
60352;SDS011;46196;52.970;6.954;2023-02-15T12:37:57;49.88;;;27.35;;
60352;SDS011;46196;52.970;6.954;2023-02-15T12:40:29;57.15;;;27.35;;
60352;SDS011;46196;52.970;6.954;2023-02-15T12:42:56;54.67;;;27.33;;
60352;SDS011;46196;52.970;6.954;2023-02-15T12:45:24;52.92;;;28.65;;
60352;SDS011;46196;52.970;6.954;2023-02-15T12:48:15;58.03;;;28.98;;
60352;SDS011;46196;52.970;6.954;2023-02-15T12:50:43;57.08;;;27.48;;
60352;SDS011;46196;52.970;6.954;2023-02-15T12:55:56;54.83;;;27.58;;
60352;SDS011;46196;52.970;6.954;2023-02-15T12:58:24;53.53;;;27.20;;
60352;SDS011;46196;52.970;6.954;2023-02-15T13:01:10;53.22;;;28.08;;
60352;SDS011;46196;52.970;6.954;2023-02-15T13:03:37;56.33;;;27.52;;
60352;SDS011;46196;52.970;6.954;2023-02-15T13:06:19;60.03;;;25.60;;
60352;SDS011;46196;52.970;6.954;2023-02-15T13:08:47;55.00;;;27.80;;
60352;SDS011;46196;52.970;6.954;2023-02-15T13:11:25;54.78;;;26.60;;
60352;SDS011;46196;52.970;6.954;2023-02-15T13:13:55;54.50;;;27.70;;
60352;SDS011;46196;52.970;6.954;2023-02-15T13:16:43;53.58;;;27.92;;
60352;SDS011;46196;52.970;6.954;2023-02-15T13:21:44;52.05;;;25.50;;
60352;SDS011;46196;52.970;6.954;2023-02-15T13:26:57;54.90;;;26.23;;
60352;SDS011;46196;52.970;6.954;2023-02-15T13:29:25;46.88;;;25.98;;
60352;SDS011;46196;52.970;6.954;2023-02-15T13:32:44;54.30;;;25.13;;
60352;SDS011;46196;52.970;6.954;2023-02-15T13:35:03;49.63;;;24.98;;
60352;SDS011;46196;52.970;6.954;2023-02-15T13:40:22;58.80;;;27.05;;
60352;SDS011;46196;52.970;6.954;2023-02-15T13:54:43;50.97;;;24.85;;
60352;SDS011;46196;52.970;6.954;2023-02-15T13:57:15;53.13;;;26.53;;
60352;SDS011;46196;52.970;6.954;2023-02-15T14:02:47;55.92;;;25.63;;
60352;SDS011;46196;52.970;6.954;2023-02-15T14:08:19;52.70;;;25.98;;
60352;SDS011;46196;52.970;6.954;2023-02-15T14:11:08;54.80;;;25.98;;
60352;SDS011;46196;52.970;6.954;2023-02-15T14:16:42;53.53;;;25.42;;
60352;SDS011;46196;52.970;6.954;2023-02-15T14:27:10;49.47;;;22.85;;
60352;SDS011;46196;52.970;6.954;2023-02-15T14:30:02;48.43;;;23.50;;
60352;SDS011;46196;52.970;6.954;2023-02-15T14:32:45;50.50;;;23.48;;
60352;SDS011;46196;52.970;6.954;2023-02-15T14:35:18;47.47;;;23.42;;
60352;SDS011;46196;52.970;6.954;2023-02-15T14:37:48;52.83;;;22.98;;
60352;SDS011;46196;52.970;6.954;2023-02-15T14:43:23;47.15;;;24.58;;
60352;SDS011;46196;52.970;6.954;2023-02-15T14:48:56;49.47;;;24.65;;
60352;SDS011;46196;52.970;6.954;2023-02-15T14:54:11;52.58;;;24.88;;
60352;SDS011;46196;52.970;6.954;2023-02-15T14:59:27;57.03;;;24.83;;
60352;SDS011;46196;52.970;6.954;2023-02-15T15:02:09;51.67;;;25.08;;
60352;SDS011;46196;52.970;6.954;2023-02-15T15:04:58;50.10;;;24.15;;
60352;SDS011;46196;52.970;6.954;2023-02-15T15:07:43;53.72;;;24.80;;
60352;SDS011;46196;52.970;6.954;2023-02-15T15:12:51;54.08;;;23.88;;
60352;SDS011;46196;52.970;6.954;2023-02-15T15:18:00;55.13;;;24.15;;
60352;SDS011;46196;52.970;6.954;2023-02-15T15:20:38;48.78;;;23.23;;
60352;SDS011;46196;52.970;6.954;2023-02-15T15:31:02;49.13;;;23.52;;
60352;SDS011;46196;52.970;6.954;2023-02-15T15:48:00;50.17;;;24.35;;
60352;SDS011;46196;52.970;6.954;2023-02-15T15:50:50;49.80;;;21.80;;
60352;SDS011;46196;52.970;6.954;2023-02-15T15:53:23;49.95;;;23.45;;
60352;SDS011;46196;52.970;6.954;2023-02-15T15:55:50;53.10;;;23.52;;
60352;SDS011;46196;52.970;6.954;2023-02-15T15:58:21;48.90;;;23.23;;
60352;SDS011;46196;52.970;6.954;2023-02-15T16:00:52;58.30;;;23.85;;
60352;SDS011;46196;52.970;6.954;2023-02-15T16:03:22;53.70;;;23.25;;
60352;SDS011;46196;52.970;6.954;2023-02-15T16:05:50;46.88;;;22.35;;
60352;SDS011;46196;52.970;6.954;2023-02-15T16:08:33;45.33;;;22.55;;
60352;SDS011;46196;52.970;6.954;2023-02-15T16:11:18;48.95;;;22.48;;
60352;SDS011;46196;52.970;6.954;2023-02-15T16:13:47;49.17;;;24.27;;
60352;SDS011;46196;52.970;6.954;2023-02-15T16:16:13;50.63;;;23.50;;
60352;SDS011;46196;52.970;6.954;2023-02-15T16:18:49;47.00;;;23.13;;
60352;SDS011;46196;52.970;6.954;2023-02-15T16:21:17;54.47;;;24.20;;
60352;SDS011;46196;52.970;6.954;2023-02-15T16:23:54;60.80;;;27.25;;
60352;SDS011;46196;52.970;6.954;2023-02-15T16:28:56;42.78;;;22.33;;
60352;SDS011;46196;52.970;6.954;2023-02-15T16:31:22;61.95;;;26.13;;
60352;SDS011;46196;52.970;6.954;2023-02-15T16:33:51;54.00;;;25.02;;
60352;SDS011;46196;52.970;6.954;2023-02-15T16:36:26;57.67;;;28.63;;
60352;SDS011;46196;52.970;6.954;2023-02-15T16:41:25;48.67;;;23.33;;
60352;SDS011;46196;52.970;6.954;2023-02-15T16:44:16;49.40;;;22.73;;
60352;SDS011;46196;52.970;6.954;2023-02-15T16:46:48;57.15;;;27.75;;
60352;SDS011;46196;52.970;6.954;2023-02-15T16:52:01;49.97;;;27.30;;
60352;SDS011;46196;52.970;6.954;2023-02-15T16:54:33;43.67;;;24.20;;
60352;SDS011;46196;52.970;6.954;2023-02-15T16:57:00;48.08;;;22.08;;
60352;SDS011;46196;52.970;6.954;2023-02-15T16:59:31;49.33;;;23.13;;
60352;SDS011;46196;52.970;6.954;2023-02-15T17:02:21;45.28;;;22.55;;
60352;SDS011;46196;52.970;6.954;2023-02-15T17:07:31;49.63;;;22.40;;
60352;SDS011;46196;52.970;6.954;2023-02-15T17:09:58;50.80;;;24.17;;
60352;SDS011;46196;52.970;6.954;2023-02-15T17:15:25;48.78;;;23.13;;
60352;SDS011;46196;52.970;6.954;2023-02-15T17:20:57;56.72;;;25.73;;
60352;SDS011;46196;52.970;6.954;2023-02-15T17:28:50;45.92;;;22.30;;
60352;SDS011;46196;52.970;6.954;2023-02-15T17:31:21;51.92;;;22.58;;
60352;SDS011;46196;52.970;6.954;2023-02-15T17:33:56;48.22;;;22.17;;
60352;SDS011;46196;52.970;6.954;2023-02-15T17:36:24;45.65;;;21.63;;
60352;SDS011;46196;52.970;6.954;2023-02-15T17:41:29;45.33;;;21.52;;
60352;SDS011;46196;52.970;6.954;2023-02-15T17:43:57;49.45;;;22.30;;
60352;SDS011;46196;52.970;6.954;2023-02-15T17:46:23;55.22;;;23.25;;
60352;SDS011;46196;52.970;6.954;2023-02-15T17:48:51;45.85;;;22.98;;
60352;SDS011;46196;52.970;6.954;2023-02-15T17:51:21;53.55;;;23.65;;
60352;SDS011;46196;52.970;6.954;2023-02-15T17:53:48;53.80;;;25.58;;
60352;SDS011;46196;52.970;6.954;2023-02-15T17:56:33;47.53;;;21.45;;
60352;SDS011;46196;52.970;6.954;2023-02-15T17:59:00;50.38;;;23.27;;
60352;SDS011;46196;52.970;6.954;2023-02-15T18:01:26;46.55;;;20.73;;
60352;SDS011;46196;52.970;6.954;2023-02-15T18:04:14;54.83;;;24.70;;
60352;SDS011;46196;52.970;6.954;2023-02-15T18:06:59;49.17;;;22.50;;
60352;SDS011;46196;52.970;6.954;2023-02-15T18:09:43;48.40;;;23.38;;
60352;SDS011;46196;52.970;6.954;2023-02-15T18:12:32;49.88;;;23.48;;
60352;SDS011;46196;52.970;6.954;2023-02-15T18:15:02;48.35;;;21.65;;
60352;SDS011;46196;52.970;6.954;2023-02-15T18:18:03;49.45;;;22.25;;
60352;SDS011;46196;52.970;6.954;2023-02-15T18:20:25;41.22;;;22.02;;
60352;SDS011;46196;52.970;6.954;2023-02-15T18:22:58;49.67;;;23.42;;
60352;SDS011;46196;52.970;6.954;2023-02-15T18:25:26;47.88;;;21.88;;
60352;SDS011;46196;52.970;6.954;2023-02-15T18:27:52;49.55;;;23.95;;
60352;SDS011;46196;52.970;6.954;2023-02-15T18:30:19;50.50;;;23.83;;
60352;SDS011;46196;52.970;6.954;2023-02-15T18:32:48;44.83;;;22.33;;
60352;SDS011;46196;52.970;6.954;2023-02-15T18:35:17;44.33;;;22.15;;
60352;SDS011;46196;52.970;6.954;2023-02-15T18:37:45;50.63;;;28.88;;
60352;SDS011;46196;52.970;6.954;2023-02-15T18:40:15;47.53;;;23.77;;
60352;SDS011;46196;52.970;6.954;2023-02-15T18:42:43;50.53;;;23.02;;